sensor_id;sensor_type;location;lat;lon;timestamp;P1;durP1;ratioP1;P2;durP2;ratioP2
24143;SDS011;12307;50.828;6.080;2022-08-19T00:02:11;3.90;;;3.60;;
24143;SDS011;12307;50.828;6.080;2022-08-19T00:04:37;4.20;;;3.90;;
24143;SDS011;12307;50.828;6.080;2022-08-19T00:07:06;4.03;;;3.72;;
24143;SDS011;12307;50.828;6.080;2022-08-19T00:09:32;4.15;;;3.78;;
24143;SDS011;12307;50.828;6.080;2022-08-19T00:11:58;4.30;;;3.97;;
24143;SDS011;12307;50.828;6.080;2022-08-19T00:14:25;4.45;;;4.15;;
24143;SDS011;12307;50.828;6.080;2022-08-19T00:16:51;4.38;;;4.07;;
24143;SDS011;12307;50.828;6.080;2022-08-19T00:19:19;4.22;;;3.92;;
24143;SDS011;12307;50.828;6.080;2022-08-19T00:21:45;3.92;;;3.63;;
24143;SDS011;12307;50.828;6.080;2022-08-19T00:24:13;4.15;;;3.85;;
24143;SDS011;12307;50.828;6.080;2022-08-19T00:26:40;4.30;;;3.90;;
24143;SDS011;12307;50.828;6.080;2022-08-19T00:29:08;4.10;;;3.80;;
24143;SDS011;12307;50.828;6.080;2022-08-19T00:31:37;4.25;;;3.85;;
24143;SDS011;12307;50.828;6.080;2022-08-19T00:34:02;4.22;;;3.83;;
24143;SDS011;12307;50.828;6.080;2022-08-19T00:36:29;4.00;;;3.70;;
24143;SDS011;12307;50.828;6.080;2022-08-19T00:38:55;4.75;;;3.75;;
24143;SDS011;12307;50.828;6.080;2022-08-19T00:41:23;4.00;;;3.70;;
24143;SDS011;12307;50.828;6.080;2022-08-19T00:44:00;4.00;;;3.70;;
24143;SDS011;12307;50.828;6.080;2022-08-19T00:46:27;4.50;;;4.10;;
24143;SDS011;12307;50.828;6.080;2022-08-19T00:48:54;4.20;;;3.80;;
24143;SDS011;12307;50.828;6.080;2022-08-19T00:51:22;4.32;;;4.03;;
24143;SDS011;12307;50.828;6.080;2022-08-19T00:53:51;3.97;;;3.67;;
24143;SDS011;12307;50.828;6.080;2022-08-19T00:56:18;4.13;;;3.80;;
24143;SDS011;12307;50.828;6.080;2022-08-19T00:58:45;3.67;;;3.45;;
24143;SDS011;12307;50.828;6.080;2022-08-19T01:01:11;4.13;;;3.83;;
24143;SDS011;12307;50.828;6.080;2022-08-19T01:03:36;4.20;;;3.90;;
24143;SDS011;12307;50.828;6.080;2022-08-19T01:06:02;4.10;;;3.80;;
24143;SDS011;12307;50.828;6.080;2022-08-19T01:08:29;4.10;;;3.80;;
24143;SDS011;12307;50.828;6.080;2022-08-19T01:10:56;4.25;;;3.95;;
24143;SDS011;12307;50.828;6.080;2022-08-19T01:13:25;4.03;;;3.72;;
24143;SDS011;12307;50.828;6.080;2022-08-19T01:15:56;4.43;;;4.05;;
24143;SDS011;12307;50.828;6.080;2022-08-19T01:18:25;4.10;;;3.80;;
24143;SDS011;12307;50.828;6.080;2022-08-19T01:20:53;4.05;;;3.75;;
24143;SDS011;12307;50.828;6.080;2022-08-19T01:23:22;4.30;;;4.00;;
24143;SDS011;12307;50.828;6.080;2022-08-19T01:26:07;4.13;;;3.83;;
24143;SDS011;12307;50.828;6.080;2022-08-19T01:28:35;4.47;;;3.85;;
24143;SDS011;12307;50.828;6.080;2022-08-19T01:31:01;4.30;;;4.00;;
24143;SDS011;12307;50.828;6.080;2022-08-19T01:33:27;4.10;;;3.70;;
24143;SDS011;12307;50.828;6.080;2022-08-19T01:36:02;4.13;;;3.83;;
24143;SDS011;12307;50.828;6.080;2022-08-19T01:38:30;4.28;;;3.90;;
24143;SDS011;12307;50.828;6.080;2022-08-19T01:41:01;4.32;;;3.92;;
24143;SDS011;12307;50.828;6.080;2022-08-19T01:43:26;4.22;;;3.92;;
24143;SDS011;12307;50.828;6.080;2022-08-19T01:45:52;4.30;;;4.00;;
24143;SDS011;12307;50.828;6.080;2022-08-19T01:48:18;4.03;;;3.72;;
24143;SDS011;12307;50.828;6.080;2022-08-19T01:50:44;4.05;;;3.75;;
24143;SDS011;12307;50.828;6.080;2022-08-19T01:53:10;4.25;;;3.95;;
24143;SDS011;12307;50.828;6.080;2022-08-19T01:55:39;4.18;;;3.88;;
24143;SDS011;12307;50.828;6.080;2022-08-19T01:58:07;3.90;;;3.60;;
24143;SDS011;12307;50.828;6.080;2022-08-19T02:00:35;4.10;;;3.72;;
24143;SDS011;12307;50.828;6.080;2022-08-19T02:03:00;3.97;;;3.67;;
24143;SDS011;12307;50.828;6.080;2022-08-19T02:05:26;4.40;;;4.10;;
24143;SDS011;12307;50.828;6.080;2022-08-19T02:07:54;3.97;;;3.67;;
24143;SDS011;12307;50.828;6.080;2022-08-19T02:10:20;4.13;;;3.80;;
24143;SDS011;12307;50.828;6.080;2022-08-19T02:12:48;3.88;;;3.58;;
24143;SDS011;12307;50.828;6.080;2022-08-19T02:15:14;4.00;;;3.70;;
24143;SDS011;12307;50.828;6.080;2022-08-19T02:17:41;4.20;;;3.90;;
24143;SDS011;12307;50.828;6.080;2022-08-19T02:20:08;4.30;;;3.97;;
24143;SDS011;12307;50.828;6.080;2022-08-19T02:22:34;3.88;;;3.58;;
24143;SDS011;12307;50.828;6.080;2022-08-19T02:25:00;4.10;;;3.80;;
24143;SDS011;12307;50.828;6.080;2022-08-19T02:27:26;4.00;;;3.70;;
24143;SDS011;12307;50.828;6.080;2022-08-19T02:29:53;4.38;;;3.85;;
24143;SDS011;12307;50.828;6.080;2022-08-19T02:32:19;4.35;;;3.95;;
24143;SDS011;12307;50.828;6.080;2022-08-19T02:34:45;4.20;;;3.90;;
24143;SDS011;12307;50.828;6.080;2022-08-19T02:37:11;4.10;;;3.80;;
24143;SDS011;12307;50.828;6.080;2022-08-19T02:39:56;4.28;;;3.97;;
24143;SDS011;12307;50.828;6.080;2022-08-19T02:42:23;4.10;;;3.80;;
24143;SDS011;12307;50.828;6.080;2022-08-19T02:44:48;4.35;;;3.97;;
24143;SDS011;12307;50.828;6.080;2022-08-19T02:47:16;4.22;;;3.92;;
24143;SDS011;12307;50.828;6.080;2022-08-19T02:49:41;3.85;;;3.55;;
24143;SDS011;12307;50.828;6.080;2022-08-19T02:52:07;4.00;;;3.70;;
24143;SDS011;12307;50.828;6.080;2022-08-19T02:54:33;4.28;;;3.97;;
24143;SDS011;12307;50.828;6.080;2022-08-19T02:56:59;4.20;;;3.90;;
24143;SDS011;12307;50.828;6.080;2022-08-19T02:59:24;4.10;;;3.80;;
24143;SDS011;12307;50.828;6.080;2022-08-19T03:01:51;4.10;;;3.80;;
24143;SDS011;12307;50.828;6.080;2022-08-19T03:04:18;4.00;;;3.70;;
24143;SDS011;12307;50.828;6.080;2022-08-19T03:06:45;4.35;;;4.05;;
24143;SDS011;12307;50.828;6.080;2022-08-19T03:09:12;4.00;;;3.70;;
24143;SDS011;12307;50.828;6.080;2022-08-19T03:11:38;4.05;;;3.75;;
24143;SDS011;12307;50.828;6.080;2022-08-19T03:14:04;4.40;;;4.00;;
24143;SDS011;12307;50.828;6.080;2022-08-19T03:16:32;4.15;;;3.80;;
24143;SDS011;12307;50.828;6.080;2022-08-19T03:19:00;3.80;;;3.50;;
24143;SDS011;12307;50.828;6.080;2022-08-19T03:21:29;3.95;;;3.65;;
24143;SDS011;12307;50.828;6.080;2022-08-19T03:23:56;4.45;;;4.05;;
24143;SDS011;12307;50.828;6.080;2022-08-19T03:26:23;3.90;;;3.60;;
24143;SDS011;12307;50.828;6.080;2022-08-19T03:28:48;4.00;;;3.70;;
24143;SDS011;12307;50.828;6.080;2022-08-19T03:31:16;3.97;;;3.67;;
24143;SDS011;12307;50.828;6.080;2022-08-19T03:33:43;4.15;;;3.85;;
24143;SDS011;12307;50.828;6.080;2022-08-19T03:36:11;4.10;;;3.80;;
24143;SDS011;12307;50.828;6.080;2022-08-19T03:38:40;4.15;;;3.85;;
24143;SDS011;12307;50.828;6.080;2022-08-19T03:41:08;4.28;;;3.88;;
24143;SDS011;12307;50.828;6.080;2022-08-19T03:43:36;3.60;;;3.40;;
24143;SDS011;12307;50.828;6.080;2022-08-19T03:46:06;4.18;;;3.88;;
24143;SDS011;12307;50.828;6.080;2022-08-19T03:48:33;4.30;;;3.90;;
24143;SDS011;12307;50.828;6.080;2022-08-19T03:51:01;4.45;;;4.05;;
24143;SDS011;12307;50.828;6.080;2022-08-19T03:53:27;4.07;;;3.78;;
24143;SDS011;12307;50.828;6.080;2022-08-19T03:55:56;4.07;;;3.78;;
24143;SDS011;12307;50.828;6.080;2022-08-19T03:58:24;4.57;;;4.18;;
24143;SDS011;12307;50.828;6.080;2022-08-19T04:00:50;4.38;;;3.97;;
24143;SDS011;12307;50.828;6.080;2022-08-19T04:03:16;4.03;;;3.72;;
24143;SDS011;12307;50.828;6.080;2022-08-19T04:05:43;4.28;;;3.97;;
24143;SDS011;12307;50.828;6.080;2022-08-19T04:08:09;3.95;;;3.65;;
24143;SDS011;12307;50.828;6.080;2022-08-19T04:10:35;4.35;;;4.05;;
24143;SDS011;12307;50.828;6.080;2022-08-19T04:13:03;4.15;;;3.80;;
24143;SDS011;12307;50.828;6.080;2022-08-19T04:15:31;4.55;;;4.20;;
24143;SDS011;12307;50.828;6.080;2022-08-19T04:18:00;4.45;;;4.07;;
24143;SDS011;12307;50.828;6.080;2022-08-19T04:20:26;4.15;;;3.85;;
24143;SDS011;12307;50.828;6.080;2022-08-19T04:22:52;4.28;;;3.97;;
24143;SDS011;12307;50.828;6.080;2022-08-19T04:25:17;4.40;;;4.00;;
24143;SDS011;12307;50.828;6.080;2022-08-19T04:27:43;4.07;;;3.78;;
24143;SDS011;12307;50.828;6.080;2022-08-19T04:30:13;3.88;;;3.58;;
24143;SDS011;12307;50.828;6.080;2022-08-19T04:32:39;4.53;;;4.10;;
24143;SDS011;12307;50.828;6.080;2022-08-19T04:35:06;4.20;;;3.90;;
24143;SDS011;12307;50.828;6.080;2022-08-19T04:37:32;4.78;;;4.38;;
24143;SDS011;12307;50.828;6.080;2022-08-19T04:39:58;4.07;;;3.78;;
24143;SDS011;12307;50.828;6.080;2022-08-19T04:42:42;4.20;;;3.90;;
24143;SDS011;12307;50.828;6.080;2022-08-19T04:45:09;4.10;;;3.80;;
24143;SDS011;12307;50.828;6.080;2022-08-19T04:47:37;4.13;;;3.83;;
24143;SDS011;12307;50.828;6.080;2022-08-19T04:50:04;4.15;;;3.80;;
24143;SDS011;12307;50.828;6.080;2022-08-19T04:52:31;4.05;;;3.75;;
24143;SDS011;12307;50.828;6.080;2022-08-19T04:54:57;4.20;;;3.85;;
24143;SDS011;12307;50.828;6.080;2022-08-19T04:57:23;4.53;;;4.20;;
24143;SDS011;12307;50.828;6.080;2022-08-19T04:59:48;4.07;;;3.78;;
24143;SDS011;12307;50.828;6.080;2022-08-19T05:02:18;3.63;;;3.33;;
24143;SDS011;12307;50.828;6.080;2022-08-19T05:04:45;4.00;;;3.70;;
24143;SDS011;12307;50.828;6.080;2022-08-19T05:07:10;3.88;;;3.58;;
24143;SDS011;12307;50.828;6.080;2022-08-19T05:09:36;4.30;;;4.00;;
24143;SDS011;12307;50.828;6.080;2022-08-19T05:12:02;4.25;;;3.88;;
24143;SDS011;12307;50.828;6.080;2022-08-19T05:14:28;4.15;;;3.85;;
24143;SDS011;12307;50.828;6.080;2022-08-19T05:16:54;4.13;;;3.83;;
24143;SDS011;12307;50.828;6.080;2022-08-19T05:19:20;4.20;;;3.90;;
24143;SDS011;12307;50.828;6.080;2022-08-19T05:22:05;4.20;;;3.90;;
24143;SDS011;12307;50.828;6.080;2022-08-19T05:24:49;4.65;;;4.30;;
24143;SDS011;12307;50.828;6.080;2022-08-19T05:27:15;3.78;;;3.47;;
24143;SDS011;12307;50.828;6.080;2022-08-19T05:29:41;4.10;;;3.80;;
24143;SDS011;12307;50.828;6.080;2022-08-19T05:32:06;4.20;;;3.90;;
24143;SDS011;12307;50.828;6.080;2022-08-19T05:34:35;4.57;;;4.18;;
24143;SDS011;12307;50.828;6.080;2022-08-19T05:37:03;4.15;;;3.85;;
24143;SDS011;12307;50.828;6.080;2022-08-19T05:39:31;3.95;;;3.65;;
24143;SDS011;12307;50.828;6.080;2022-08-19T05:41:59;4.45;;;4.15;;
24143;SDS011;12307;50.828;6.080;2022-08-19T05:44:27;4.53;;;4.13;;
24143;SDS011;12307;50.828;6.080;2022-08-19T05:46:56;4.53;;;4.13;;
24143;SDS011;12307;50.828;6.080;2022-08-19T05:49:22;4.55;;;4.18;;
24143;SDS011;12307;50.828;6.080;2022-08-19T05:51:50;4.60;;;4.20;;
24143;SDS011;12307;50.828;6.080;2022-08-19T05:54:16;4.35;;;3.95;;
24143;SDS011;12307;50.828;6.080;2022-08-19T05:56:44;4.38;;;4.03;;
24143;SDS011;12307;50.828;6.080;2022-08-19T05:59:13;4.10;;;3.80;;
24143;SDS011;12307;50.828;6.080;2022-08-19T06:01:41;4.40;;;4.00;;
24143;SDS011;12307;50.828;6.080;2022-08-19T06:04:08;4.00;;;3.70;;
24143;SDS011;12307;50.828;6.080;2022-08-19T06:06:34;4.15;;;3.85;;
24143;SDS011;12307;50.828;6.080;2022-08-19T06:09:00;4.80;;;4.40;;
24143;SDS011;12307;50.828;6.080;2022-08-19T06:11:31;4.68;;;4.28;;
24143;SDS011;12307;50.828;6.080;2022-08-19T06:14:00;4.20;;;3.75;;
24143;SDS011;12307;50.828;6.080;2022-08-19T06:16:27;4.07;;;3.78;;
24143;SDS011;12307;50.828;6.080;2022-08-19T06:18:55;4.03;;;3.72;;
24143;SDS011;12307;50.828;6.080;2022-08-19T06:21:22;4.32;;;3.92;;
24143;SDS011;12307;50.828;6.080;2022-08-19T06:23:50;4.20;;;3.90;;
24143;SDS011;12307;50.828;6.080;2022-08-19T06:26:17;4.32;;;4.03;;
24143;SDS011;12307;50.828;6.080;2022-08-19T06:28:43;3.95;;;3.65;;
24143;SDS011;12307;50.828;6.080;2022-08-19T06:31:13;4.47;;;4.07;;
24143;SDS011;12307;50.828;6.080;2022-08-19T06:33:39;4.40;;;4.00;;
24143;SDS011;12307;50.828;6.080;2022-08-19T06:36:05;5.43;;;5.00;;
24143;SDS011;12307;50.828;6.080;2022-08-19T06:38:31;5.45;;;4.95;;
24143;SDS011;12307;50.828;6.080;2022-08-19T06:41:00;5.75;;;5.15;;
24143;SDS011;12307;50.828;6.080;2022-08-19T06:43:26;7.70;;;6.88;;
24143;SDS011;12307;50.828;6.080;2022-08-19T06:45:51;6.68;;;6.07;;
24143;SDS011;12307;50.828;6.080;2022-08-19T06:48:18;7.32;;;6.60;;
24143;SDS011;12307;50.828;6.080;2022-08-19T06:50:44;6.53;;;5.65;;
24143;SDS011;12307;50.828;6.080;2022-08-19T06:53:10;6.97;;;6.28;;
24143;SDS011;12307;50.828;6.080;2022-08-19T06:55:36;8.32;;;6.90;;
24143;SDS011;12307;50.828;6.080;2022-08-19T06:58:02;7.50;;;6.80;;
24143;SDS011;12307;50.828;6.080;2022-08-19T07:00:29;8.18;;;7.32;;
24143;SDS011;12307;50.828;6.080;2022-08-19T07:02:54;7.95;;;6.57;;
24143;SDS011;12307;50.828;6.080;2022-08-19T07:05:21;6.30;;;5.20;;
24143;SDS011;12307;50.828;6.080;2022-08-19T07:07:47;6.35;;;5.78;;
24143;SDS011;12307;50.828;6.080;2022-08-19T07:10:13;6.47;;;5.88;;
24143;SDS011;12307;50.828;6.080;2022-08-19T07:12:38;6.30;;;5.70;;
24143;SDS011;12307;50.828;6.080;2022-08-19T07:15:06;5.85;;;5.35;;
24143;SDS011;12307;50.828;6.080;2022-08-19T07:17:33;5.25;;;4.85;;
24143;SDS011;12307;50.828;6.080;2022-08-19T07:20:00;6.55;;;5.97;;
24143;SDS011;12307;50.828;6.080;2022-08-19T07:22:27;6.72;;;6.15;;
24143;SDS011;12307;50.828;6.080;2022-08-19T07:24:53;6.28;;;5.68;;
24143;SDS011;12307;50.828;6.080;2022-08-19T07:27:19;6.75;;;6.05;;
24143;SDS011;12307;50.828;6.080;2022-08-19T07:29:44;6.65;;;5.95;;
24143;SDS011;12307;50.828;6.080;2022-08-19T07:32:10;6.00;;;5.40;;
24143;SDS011;12307;50.828;6.080;2022-08-19T07:34:36;7.18;;;6.30;;
24143;SDS011;12307;50.828;6.080;2022-08-19T07:37:02;8.25;;;6.15;;
24143;SDS011;12307;50.828;6.080;2022-08-19T07:39:31;6.90;;;5.95;;
24143;SDS011;12307;50.828;6.080;2022-08-19T07:41:59;6.93;;;6.30;;
24143;SDS011;12307;50.828;6.080;2022-08-19T07:44:26;7.88;;;6.00;;
24143;SDS011;12307;50.828;6.080;2022-08-19T07:46:53;6.95;;;6.15;;
24143;SDS011;12307;50.828;6.080;2022-08-19T07:49:21;7.75;;;6.95;;
24143;SDS011;12307;50.828;6.080;2022-08-19T07:51:48;11.25;;;8.65;;
24143;SDS011;12307;50.828;6.080;2022-08-19T07:54:17;8.45;;;6.80;;
24143;SDS011;12307;50.828;6.080;2022-08-19T07:56:45;9.20;;;7.13;;
24143;SDS011;12307;50.828;6.080;2022-08-19T07:59:11;9.07;;;7.32;;
24143;SDS011;12307;50.828;6.080;2022-08-19T08:01:38;7.50;;;6.78;;
24143;SDS011;12307;50.828;6.080;2022-08-19T08:04:05;8.13;;;7.32;;
24143;SDS011;12307;50.828;6.080;2022-08-19T08:06:50;7.63;;;6.53;;
24143;SDS011;12307;50.828;6.080;2022-08-19T08:09:35;7.40;;;6.28;;
24143;SDS011;12307;50.828;6.080;2022-08-19T08:12:05;7.72;;;6.80;;
24143;SDS011;12307;50.828;6.080;2022-08-19T08:14:33;6.72;;;6.03;;
24143;SDS011;12307;50.828;6.080;2022-08-19T08:17:01;9.70;;;6.68;;
24143;SDS011;12307;50.828;6.080;2022-08-19T08:19:27;7.43;;;6.68;;
24143;SDS011;12307;50.828;6.080;2022-08-19T08:21:54;6.85;;;6.15;;
24143;SDS011;12307;50.828;6.080;2022-08-19T08:24:21;6.75;;;6.07;;
24143;SDS011;12307;50.828;6.080;2022-08-19T08:26:47;7.10;;;6.13;;
24143;SDS011;12307;50.828;6.080;2022-08-19T08:29:17;10.00;;;6.40;;
24143;SDS011;12307;50.828;6.080;2022-08-19T08:31:44;10.40;;;7.05;;
24143;SDS011;12307;50.828;6.080;2022-08-19T08:34:12;7.00;;;6.30;;
24143;SDS011;12307;50.828;6.080;2022-08-19T08:36:39;7.63;;;6.70;;
24143;SDS011;12307;50.828;6.080;2022-08-19T08:39:07;8.45;;;7.40;;
24143;SDS011;12307;50.828;6.080;2022-08-19T08:41:35;9.60;;;8.00;;
24143;SDS011;12307;50.828;6.080;2022-08-19T08:44:06;9.02;;;7.53;;
24143;SDS011;12307;50.828;6.080;2022-08-19T08:46:41;10.43;;;7.35;;
24143;SDS011;12307;50.828;6.080;2022-08-19T08:49:15;9.48;;;7.00;;
24143;SDS011;12307;50.828;6.080;2022-08-19T08:51:51;7.90;;;7.13;;
24143;SDS011;12307;50.828;6.080;2022-08-19T08:54:19;7.53;;;6.82;;
24143;SDS011;12307;50.828;6.080;2022-08-19T08:56:48;8.32;;;6.20;;
24143;SDS011;12307;50.828;6.080;2022-08-19T08:59:18;8.70;;;6.85;;
24143;SDS011;12307;50.828;6.080;2022-08-19T09:01:48;8.27;;;6.97;;
24143;SDS011;12307;50.828;6.080;2022-08-19T09:04:13;7.70;;;7.00;;
24143;SDS011;12307;50.828;6.080;2022-08-19T09:06:44;7.80;;;6.90;;
24143;SDS011;12307;50.828;6.080;2022-08-19T09:09:18;8.40;;;7.10;;
24143;SDS011;12307;50.828;6.080;2022-08-19T09:11:56;9.95;;;6.28;;
24143;SDS011;12307;50.828;6.080;2022-08-19T09:14:36;7.63;;;6.80;;
24143;SDS011;12307;50.828;6.080;2022-08-19T09:17:07;7.15;;;6.45;;
24143;SDS011;12307;50.828;6.080;2022-08-19T09:19:34;7.35;;;6.65;;
24143;SDS011;12307;50.828;6.080;2022-08-19T09:22:00;7.30;;;6.60;;
24143;SDS011;12307;50.828;6.080;2022-08-19T09:24:26;7.60;;;6.80;;
24143;SDS011;12307;50.828;6.080;2022-08-19T09:26:52;7.43;;;6.72;;
24143;SDS011;12307;50.828;6.080;2022-08-19T09:29:18;7.80;;;7.00;;
24143;SDS011;12307;50.828;6.080;2022-08-19T09:31:45;7.75;;;6.53;;
24143;SDS011;12307;50.828;6.080;2022-08-19T09:34:12;8.52;;;7.72;;
24143;SDS011;12307;50.828;6.080;2022-08-19T09:36:37;9.07;;;7.35;;
24143;SDS011;12307;50.828;6.080;2022-08-19T09:39:04;9.68;;;7.88;;
24143;SDS011;12307;50.828;6.080;2022-08-19T09:41:31;8.68;;;7.68;;
24143;SDS011;12307;50.828;6.080;2022-08-19T09:43:57;9.00;;;6.90;;
24143;SDS011;12307;50.828;6.080;2022-08-19T09:46:24;9.38;;;8.45;;
24143;SDS011;12307;50.828;6.080;2022-08-19T09:48:51;9.25;;;8.02;;
24143;SDS011;12307;50.828;6.080;2022-08-19T09:51:20;11.80;;;8.60;;
24143;SDS011;12307;50.828;6.080;2022-08-19T09:53:48;9.77;;;8.77;;
24143;SDS011;12307;50.828;6.080;2022-08-19T09:56:16;11.85;;;8.70;;
24143;SDS011;12307;50.828;6.080;2022-08-19T09:58:43;10.10;;;9.02;;
24143;SDS011;12307;50.828;6.080;2022-08-19T10:01:09;10.05;;;7.45;;
24143;SDS011;12307;50.828;6.080;2022-08-19T10:03:41;9.38;;;8.02;;
24143;SDS011;12307;50.828;6.080;2022-08-19T10:06:07;8.68;;;7.80;;
24143;SDS011;12307;50.828;6.080;2022-08-19T10:08:36;8.70;;;7.80;;
24143;SDS011;12307;50.828;6.080;2022-08-19T10:11:02;9.40;;;7.78;;
24143;SDS011;12307;50.828;6.080;2022-08-19T10:13:29;10.13;;;7.80;;
24143;SDS011;12307;50.828;6.080;2022-08-19T10:16:01;8.70;;;7.85;;
24143;SDS011;12307;50.828;6.080;2022-08-19T10:18:29;9.05;;;7.40;;
24143;SDS011;12307;50.828;6.080;2022-08-19T10:21:02;10.20;;;7.80;;
24143;SDS011;12307;50.828;6.080;2022-08-19T10:23:32;8.95;;;8.07;;
24143;SDS011;12307;50.828;6.080;2022-08-19T10:26:00;10.40;;;8.27;;
24143;SDS011;12307;50.828;6.080;2022-08-19T10:28:26;8.38;;;7.50;;
24143;SDS011;12307;50.828;6.080;2022-08-19T10:30:52;9.18;;;8.15;;
24143;SDS011;12307;50.828;6.080;2022-08-19T10:33:18;9.68;;;8.38;;
24143;SDS011;12307;50.828;6.080;2022-08-19T10:35:44;9.05;;;8.23;;
24143;SDS011;12307;50.828;6.080;2022-08-19T10:38:11;8.90;;;8.00;;
24143;SDS011;12307;50.828;6.080;2022-08-19T10:40:37;8.57;;;7.72;;
24143;SDS011;12307;50.828;6.080;2022-08-19T10:43:04;10.05;;;8.60;;
24143;SDS011;12307;50.828;6.080;2022-08-19T10:45:30;9.25;;;8.35;;
24143;SDS011;12307;50.828;6.080;2022-08-19T10:47:55;9.35;;;8.45;;
24143;SDS011;12307;50.828;6.080;2022-08-19T10:50:21;9.00;;;8.10;;
24143;SDS011;12307;50.828;6.080;2022-08-19T10:53:06;9.48;;;8.30;;
24143;SDS011;12307;50.828;6.080;2022-08-19T10:55:36;9.52;;;8.52;;
24143;SDS011;12307;50.828;6.080;2022-08-19T10:58:22;9.55;;;8.55;;
24143;SDS011;12307;50.828;6.080;2022-08-19T11:00:53;10.10;;;8.98;;
24143;SDS011;12307;50.828;6.080;2022-08-19T11:03:20;9.48;;;8.52;;
24143;SDS011;12307;50.828;6.080;2022-08-19T11:05:53;9.18;;;8.10;;
24143;SDS011;12307;50.828;6.080;2022-08-19T11:08:23;9.77;;;8.77;;
24143;SDS011;12307;50.828;6.080;2022-08-19T11:10:49;10.73;;;9.40;;
24143;SDS011;12307;50.828;6.080;2022-08-19T11:13:16;11.00;;;9.88;;
24143;SDS011;12307;50.828;6.080;2022-08-19T11:15:43;9.75;;;8.80;;
24143;SDS011;12307;50.828;6.080;2022-08-19T11:18:10;10.13;;;9.13;;
24143;SDS011;12307;50.828;6.080;2022-08-19T11:20:36;10.73;;;9.05;;
24143;SDS011;12307;50.828;6.080;2022-08-19T11:23:02;9.88;;;8.90;;
24143;SDS011;12307;50.828;6.080;2022-08-19T11:25:28;10.85;;;9.75;;
24143;SDS011;12307;50.828;6.080;2022-08-19T11:27:53;11.23;;;10.00;;
24143;SDS011;12307;50.828;6.080;2022-08-19T11:30:19;11.70;;;10.50;;
24143;SDS011;12307;50.828;6.080;2022-08-19T11:32:47;11.07;;;9.75;;
24143;SDS011;12307;50.828;6.080;2022-08-19T11:35:12;11.32;;;10.20;;
24143;SDS011;12307;50.828;6.080;2022-08-19T11:37:38;10.30;;;9.30;;
24143;SDS011;12307;50.828;6.080;2022-08-19T11:40:05;10.65;;;9.60;;
24143;SDS011;12307;50.828;6.080;2022-08-19T11:42:31;13.50;;;9.82;;
24143;SDS011;12307;50.828;6.080;2022-08-19T11:45:16;10.80;;;9.45;;
24143;SDS011;12307;50.828;6.080;2022-08-19T11:47:42;10.63;;;9.45;;
24143;SDS011;12307;50.828;6.080;2022-08-19T11:50:09;11.77;;;10.10;;
24143;SDS011;12307;50.828;6.080;2022-08-19T11:52:35;10.63;;;9.52;;
24143;SDS011;12307;50.828;6.080;2022-08-19T11:55:01;11.13;;;9.90;;
24143;SDS011;12307;50.828;6.080;2022-08-19T11:57:28;9.65;;;8.75;;
24143;SDS011;12307;50.828;6.080;2022-08-19T11:59:54;11.50;;;9.18;;
24143;SDS011;12307;50.828;6.080;2022-08-19T12:02:19;10.52;;;9.57;;
24143;SDS011;12307;50.828;6.080;2022-08-19T12:04:46;11.70;;;9.57;;
24143;SDS011;12307;50.828;6.080;2022-08-19T12:07:16;10.43;;;9.43;;
24143;SDS011;12307;50.828;6.080;2022-08-19T12:09:42;10.85;;;9.82;;
24143;SDS011;12307;50.828;6.080;2022-08-19T12:12:08;10.35;;;9.35;;
24143;SDS011;12307;50.828;6.080;2022-08-19T12:14:34;11.60;;;10.20;;
24143;SDS011;12307;50.828;6.080;2022-08-19T12:17:00;10.75;;;9.65;;
24143;SDS011;12307;50.828;6.080;2022-08-19T12:19:27;10.65;;;9.60;;
24143;SDS011;12307;50.828;6.080;2022-08-19T12:21:53;10.68;;;9.57;;
24143;SDS011;12307;50.828;6.080;2022-08-19T12:24:26;10.30;;;9.30;;
24143;SDS011;12307;50.828;6.080;2022-08-19T12:26:52;10.85;;;9.23;;
24143;SDS011;12307;50.828;6.080;2022-08-19T12:29:20;10.35;;;9.35;;
24143;SDS011;12307;50.828;6.080;2022-08-19T12:31:46;9.73;;;8.75;;
24143;SDS011;12307;50.828;6.080;2022-08-19T12:34:12;9.93;;;9.00;;
24143;SDS011;12307;50.828;6.080;2022-08-19T12:36:38;10.80;;;9.70;;
24143;SDS011;12307;50.828;6.080;2022-08-19T12:39:04;10.18;;;9.15;;
24143;SDS011;12307;50.828;6.080;2022-08-19T12:41:32;10.07;;;9.05;;
24143;SDS011;12307;50.828;6.080;2022-08-19T12:43:57;10.52;;;9.15;;
24143;SDS011;12307;50.828;6.080;2022-08-19T12:46:23;10.88;;;9.77;;
24143;SDS011;12307;50.828;6.080;2022-08-19T12:48:49;10.60;;;9.50;;
24143;SDS011;12307;50.828;6.080;2022-08-19T12:51:17;9.30;;;8.40;;
24143;SDS011;12307;50.828;6.080;2022-08-19T12:53:44;9.45;;;8.63;;
24143;SDS011;12307;50.828;6.080;2022-08-19T12:56:11;10.40;;;9.32;;
24143;SDS011;12307;50.828;6.080;2022-08-19T12:58:40;9.98;;;8.95;;
24143;SDS011;12307;50.828;6.080;2022-08-19T13:01:07;9.63;;;8.70;;
24143;SDS011;12307;50.828;6.080;2022-08-19T13:03:34;9.27;;;8.45;;
24143;SDS011;12307;50.828;6.080;2022-08-19T13:06:00;9.85;;;8.85;;
24143;SDS011;12307;50.828;6.080;2022-08-19T13:08:25;9.60;;;8.52;;
24143;SDS011;12307;50.828;6.080;2022-08-19T13:10:51;9.93;;;9.02;;
24143;SDS011;12307;50.828;6.080;2022-08-19T13:13:18;9.27;;;8.40;;
24143;SDS011;12307;50.828;6.080;2022-08-19T13:15:45;9.27;;;8.35;;
24143;SDS011;12307;50.828;6.080;2022-08-19T13:18:12;10.00;;;9.00;;
24143;SDS011;12307;50.828;6.080;2022-08-19T13:20:39;9.88;;;8.98;;
24143;SDS011;12307;50.828;6.080;2022-08-19T13:23:05;9.10;;;8.20;;
24143;SDS011;12307;50.828;6.080;2022-08-19T13:25:31;9.52;;;8.60;;
24143;SDS011;12307;50.828;6.080;2022-08-19T13:27:57;9.60;;;8.70;;
24143;SDS011;12307;50.828;6.080;2022-08-19T13:30:24;9.63;;;8.65;;
24143;SDS011;12307;50.828;6.080;2022-08-19T13:33:10;9.90;;;8.90;;
24143;SDS011;12307;50.828;6.080;2022-08-19T13:35:36;9.18;;;8.38;;
24143;SDS011;12307;50.828;6.080;2022-08-19T13:38:02;9.45;;;8.55;;
24143;SDS011;12307;50.828;6.080;2022-08-19T13:40:29;9.85;;;8.25;;
24143;SDS011;12307;50.828;6.080;2022-08-19T13:42:56;9.32;;;8.38;;
24143;SDS011;12307;50.828;6.080;2022-08-19T13:45:24;9.27;;;7.70;;
24143;SDS011;12307;50.828;6.080;2022-08-19T13:47:51;8.65;;;7.85;;
24143;SDS011;12307;50.828;6.080;2022-08-19T13:50:21;8.90;;;8.10;;
24143;SDS011;12307;50.828;6.080;2022-08-19T13:52:47;9.05;;;8.23;;
24143;SDS011;12307;50.828;6.080;2022-08-19T13:55:14;9.45;;;8.63;;
24143;SDS011;12307;50.828;6.080;2022-08-19T13:57:40;8.45;;;7.65;;
24143;SDS011;12307;50.828;6.080;2022-08-19T14:00:07;9.98;;;9.07;;
24143;SDS011;12307;50.828;6.080;2022-08-19T14:02:36;9.20;;;8.30;;
24143;SDS011;12307;50.828;6.080;2022-08-19T14:05:03;8.68;;;7.85;;
24143;SDS011;12307;50.828;6.080;2022-08-19T14:07:30;8.90;;;8.05;;
24143;SDS011;12307;50.828;6.080;2022-08-19T14:09:56;8.40;;;7.60;;
24143;SDS011;12307;50.828;6.080;2022-08-19T14:12:22;9.18;;;8.32;;
24143;SDS011;12307;50.828;6.080;2022-08-19T14:14:48;9.10;;;8.20;;
24143;SDS011;12307;50.828;6.080;2022-08-19T14:17:14;9.30;;;8.40;;
24143;SDS011;12307;50.828;6.080;2022-08-19T14:19:40;8.93;;;8.10;;
24143;SDS011;12307;50.828;6.080;2022-08-19T14:22:06;8.95;;;8.13;;
24143;SDS011;12307;50.828;6.080;2022-08-19T14:24:33;8.88;;;7.97;;
24143;SDS011;12307;50.828;6.080;2022-08-19T14:26:59;9.07;;;8.18;;
24143;SDS011;12307;50.828;6.080;2022-08-19T14:29:25;8.45;;;7.65;;
24143;SDS011;12307;50.828;6.080;2022-08-19T14:31:53;8.60;;;7.07;;
24143;SDS011;12307;50.828;6.080;2022-08-19T14:34:21;9.02;;;8.10;;
24143;SDS011;12307;50.828;6.080;2022-08-19T14:36:47;8.13;;;7.32;;
24143;SDS011;12307;50.828;6.080;2022-08-19T14:39:13;7.95;;;7.18;;
24143;SDS011;12307;50.828;6.080;2022-08-19T14:41:40;8.82;;;7.70;;
24143;SDS011;12307;50.828;6.080;2022-08-19T14:44:07;7.63;;;6.93;;
24143;SDS011;12307;50.828;6.080;2022-08-19T14:46:37;7.72;;;7.03;;
24143;SDS011;12307;50.828;6.080;2022-08-19T14:49:04;7.47;;;6.78;;